Terminal Aerodrome Forecast
Issued by NWS

Home | Current Version | Previous Version | Text Only | Print | Product List | Glossary On
Versions: 1 2 3 4 5 6 7 8 9 10 11 12 13 14 15 16 17 18 19
000
FTUS46 KPQR 210851 AAA
TAFONP
TAF AMD
KONP 210851Z 2109/2206 00000KT P6SM BKN009
     FM211300 12001KT 5SM BR BKN004
     FM211600 14003KT 5SM BR BKN035
     FM211800 27007KT P6SM SKC=

USA.gov is the U.S. government's official web portal to all federal, state and local government web resources and services.